createdAt,value
2022-10-15T00:00:51.167Z,12.20
2022-10-15T00:03:17.672Z,13.07
2022-10-15T00:05:44.402Z,12.25
2022-10-15T00:08:11.979Z,13.32
2022-10-15T00:10:38.860Z,13.75
2022-10-15T00:13:06.013Z,12.95
2022-10-15T00:15:32.534Z,12.88
2022-10-15T00:17:59.092Z,13.60
2022-10-15T00:20:28.359Z,13.20
2022-10-15T00:22:54.795Z,14.02
2022-10-15T00:25:24.331Z,13.45
2022-10-15T00:27:50.830Z,14.15
2022-10-15T00:30:17.351Z,14.23
2022-10-15T00:32:43.867Z,15.38
2022-10-15T00:35:10.369Z,15.18
2022-10-15T00:37:36.802Z,14.88
2022-10-15T00:40:03.685Z,15.15
2022-10-15T00:42:30.302Z,14.30
2022-10-15T00:44:58.631Z,13.35
2022-10-15T00:47:29.531Z,13.95
2022-10-15T00:50:04.547Z,13.50
2022-10-15T00:52:49.355Z,13.48
2022-10-15T00:55:21.632Z,12.75
2022-10-15T00:57:49.735Z,14.65
2022-10-15T01:00:17.391Z,14.30
2022-10-15T01:02:45.409Z,14.48
2022-10-15T01:05:13.428Z,13.82
2022-10-15T01:07:39.910Z,15.30
2022-10-15T01:10:07.372Z,13.68
2022-10-15T01:12:59.364Z,14.57
2022-10-15T01:15:31.365Z,14.55
2022-10-15T01:18:03.224Z,14.95
2022-10-15T01:20:57.886Z,14.68
2022-10-15T01:23:43.426Z,14.85
2022-10-15T01:26:43.947Z,14.55
2022-10-15T01:29:34.240Z,14.80
2022-10-15T01:32:09.571Z,14.75
2022-10-15T01:34:51.158Z,15.18
2022-10-15T01:37:27.734Z,14.10
2022-10-15T01:39:57.877Z,15.25
2022-10-15T01:42:42.729Z,14.32
2022-10-15T01:45:13.240Z,14.65
2022-10-15T01:47:50.701Z,13.73
2022-10-15T01:50:19.833Z,14.95
2022-10-15T01:52:46.478Z,15.15
2022-10-15T01:55:14.968Z,14.88
2022-10-15T01:57:43.249Z,15.10
2022-10-15T02:00:10.377Z,15.13
2022-10-15T02:02:36.911Z,14.23
2022-10-15T02:05:05.631Z,15.40
2022-10-15T02:07:35.100Z,15.68
2022-10-15T02:10:09.257Z,16.02
2022-10-15T02:13:14.583Z,15.30
2022-10-15T02:16:07.293Z,15.32
2022-10-15T02:18:55.352Z,14.82
2022-10-15T02:21:44.535Z,14.88
2022-10-15T02:24:20.497Z,15.23
2022-10-15T02:26:47.314Z,16.23
2022-10-15T02:29:18.481Z,15.27
2022-10-15T02:31:47.110Z,16.25
2022-10-15T02:34:17.602Z,15.70
2022-10-15T02:36:44.756Z,15.32
2022-10-15T02:39:14.546Z,16.20
2022-10-15T02:41:41.182Z,16.42
2022-10-15T02:44:07.701Z,15.77
2022-10-15T02:46:36.801Z,15.95
2022-10-15T02:49:03.339Z,15.10
2022-10-15T02:51:33.888Z,15.43
2022-10-15T02:54:01.595Z,15.60
2022-10-15T02:56:31.694Z,15.82
2022-10-15T02:58:58.209Z,16.92
2022-10-15T03:01:25.820Z,15.70
2022-10-15T03:03:52.384Z,16.65
2022-10-15T03:06:18.829Z,16.25
2022-10-15T03:08:45.349Z,15.75
2022-10-15T03:11:12.088Z,15.68
2022-10-15T03:13:39.366Z,15.85
2022-10-15T03:16:06.910Z,16.23
2022-10-15T03:18:36.800Z,16.60
2022-10-15T03:21:06.525Z,16.20
2022-10-15T03:26:19.564Z,15.18
2022-10-15T03:28:46.138Z,16.15
2022-10-15T03:31:14.369Z,15.07
2022-10-15T03:33:40.827Z,17.23
2022-10-15T03:36:09.597Z,15.70
2022-10-15T03:38:36.051Z,15.80
2022-10-15T03:41:02.572Z,14.82
2022-10-15T03:43:29.816Z,15.48
2022-10-15T03:45:56.276Z,16.58
2022-10-15T03:48:22.885Z,14.25
2022-10-15T03:50:50.822Z,15.07
2022-10-15T03:53:17.300Z,15.38
2022-10-15T03:55:43.825Z,14.93
2022-10-15T03:58:10.872Z,15.75
2022-10-15T04:00:37.327Z,15.63
2022-10-15T04:03:03.838Z,16.25
2022-10-15T04:05:31.342Z,15.35
2022-10-15T04:07:58.246Z,15.25
2022-10-15T04:10:24.979Z,14.63
2022-10-15T04:12:52.339Z,15.68
2022-10-15T04:15:18.931Z,15.63
2022-10-15T04:17:48.690Z,14.32
2022-10-15T04:20:15.229Z,15.88
2022-10-15T04:22:41.709Z,14.68
2022-10-15T04:25:09.164Z,14.57
2022-10-15T04:27:35.885Z,15.95
2022-10-15T04:30:02.430Z,15.45
2022-10-15T04:32:28.944Z,15.70
2022-10-15T04:34:55.414Z,15.13
2022-10-15T04:37:22.103Z,15.18
2022-10-15T04:39:48.859Z,16.15
2022-10-15T04:42:15.477Z,14.50
2022-10-15T04:44:42.003Z,14.95
2022-10-15T04:47:08.506Z,14.75
2022-10-15T04:49:35.009Z,14.95
2022-10-15T04:52:01.508Z,14.70
2022-10-15T04:57:16.050Z,14.38
2022-10-15T04:59:44.448Z,14.88
2022-10-15T05:02:11.524Z,13.90
2022-10-15T05:04:38.903Z,14.43
2022-10-15T05:07:05.441Z,14.73
2022-10-15T05:09:33.102Z,13.20
2022-10-15T05:12:02.915Z,14.30
2022-10-15T05:14:29.691Z,14.32
2022-10-15T05:16:56.157Z,13.20
2022-10-15T05:19:22.691Z,13.55
2022-10-15T05:24:37.879Z,14.50
2022-10-15T05:27:04.385Z,14.15
2022-10-15T05:29:30.837Z,13.57
2022-10-15T05:31:57.411Z,14.07
2022-10-15T05:34:24.812Z,13.70
2022-10-15T05:36:51.232Z,14.20
2022-10-15T05:39:18.015Z,14.55
2022-10-15T05:41:44.571Z,14.68
2022-10-15T05:44:11.086Z,13.07
2022-10-15T05:46:37.617Z,14.35
2022-10-15T05:49:04.174Z,14.15
2022-10-15T05:51:30.662Z,14.85
2022-10-15T05:53:58.977Z,13.75
2022-10-15T05:56:26.136Z,13.82
2022-10-15T05:58:52.640Z,13.75
2022-10-15T06:01:20.965Z,13.82
2022-10-15T06:03:47.415Z,14.07
2022-10-15T06:06:22.669Z,14.30
2022-10-15T06:08:50.265Z,13.38
2022-10-15T06:11:17.089Z,13.73
2022-10-15T06:13:44.706Z,13.43
2022-10-15T06:16:12.359Z,13.75
2022-10-15T06:18:39.531Z,13.95
2022-10-15T06:21:08.779Z,14.10
2022-10-15T06:23:35.692Z,12.98
2022-10-15T06:26:07.172Z,14.02
2022-10-15T06:28:34.448Z,14.00
2022-10-15T06:31:01.071Z,12.45
2022-10-15T06:33:28.476Z,13.27
2022-10-15T06:35:55.450Z,13.40
2022-10-15T06:38:22.009Z,13.15
2022-10-15T06:40:48.448Z,12.43
2022-10-15T06:43:14.936Z,14.00
2022-10-15T06:45:42.605Z,13.23
2022-10-15T06:48:09.680Z,13.73
2022-10-15T06:50:37.857Z,13.20
2022-10-15T06:53:05.070Z,13.57
2022-10-15T06:55:31.568Z,13.30
2022-10-15T06:57:58.485Z,13.10
2022-10-15T07:00:25.784Z,12.68
2022-10-15T07:02:52.429Z,12.05
2022-10-15T07:05:20.861Z,12.63
2022-10-15T07:07:54.270Z,12.43
2022-10-15T07:10:21.518Z,12.73
2022-10-15T07:12:48.115Z,12.98
2022-10-15T07:15:15.351Z,11.95
2022-10-15T07:18:08.153Z,11.85
2022-10-15T07:20:34.619Z,11.50
2022-10-15T07:23:01.938Z,12.00
2022-10-15T07:25:35.330Z,11.52
2022-10-15T07:28:01.866Z,11.90
2022-10-15T07:30:28.552Z,10.95
2022-10-15T07:32:59.137Z,10.82
2022-10-15T07:35:27.302Z,11.93
2022-10-15T07:37:53.845Z,12.00
2022-10-15T07:40:21.097Z,10.98
2022-10-15T07:42:57.181Z,11.18
2022-10-15T07:45:24.422Z,11.82
2022-10-15T07:47:51.253Z,11.00
2022-10-15T07:50:21.437Z,10.68
2022-10-15T07:52:48.031Z,12.00
2022-10-15T07:55:14.671Z,10.52
2022-10-15T07:57:41.176Z,10.25
2022-10-15T08:00:08.561Z,10.73
2022-10-15T08:02:34.991Z,10.80
2022-10-15T08:05:01.440Z,10.02
2022-10-15T08:07:29.271Z,9.93
2022-10-15T08:09:55.756Z,10.00
2022-10-15T08:12:22.495Z,9.45
2022-10-15T08:14:49.083Z,9.75
2022-10-15T08:17:15.580Z,9.32
2022-10-15T08:19:42.079Z,8.77
2022-10-15T08:22:08.585Z,8.85
2022-10-15T08:24:35.091Z,7.93
2022-10-15T08:27:01.575Z,8.38
2022-10-15T08:29:28.121Z,8.70
2022-10-15T08:31:54.564Z,7.90
2022-10-15T08:34:21.060Z,8.70
2022-10-15T08:36:48.129Z,7.82
2022-10-15T08:39:14.746Z,6.65
2022-10-15T08:41:45.550Z,7.47
2022-10-15T08:44:22.565Z,6.43
2022-10-15T08:46:52.828Z,7.50
2022-10-15T08:49:48.416Z,6.88
2022-10-15T08:52:21.911Z,6.07
2022-10-15T08:54:48.535Z,6.22
2022-10-15T08:57:33.365Z,6.88
2022-10-15T09:00:11.714Z,5.97
2022-10-15T09:02:51.403Z,6.43
2022-10-15T09:05:29.160Z,6.75
2022-10-15T09:08:22.228Z,7.72
2022-10-15T09:11:34.549Z,7.60
2022-10-15T09:14:03.033Z,7.90
2022-10-15T09:16:33.431Z,8.77
2022-10-15T09:19:00.855Z,8.88
2022-10-15T09:21:27.523Z,9.07
2022-10-15T09:24:02.905Z,8.55
2022-10-15T09:26:52.053Z,8.50
2022-10-15T09:29:37.169Z,8.65
2022-10-15T09:32:31.587Z,8.77
2022-10-15T09:35:07.253Z,8.80
2022-10-15T09:37:39.325Z,8.35
2022-10-15T09:40:21.831Z,8.02
2022-10-15T09:42:50.403Z,8.10
2022-10-15T09:45:17.410Z,8.05
2022-10-15T09:47:45.384Z,8.45
2022-10-15T09:50:14.732Z,8.13
2022-10-15T09:53:13.801Z,7.22
2022-10-15T09:55:52.336Z,7.30
2022-10-15T09:58:24.098Z,7.07
2022-10-15T10:01:02.230Z,7.25
2022-10-15T10:03:31.603Z,7.63
2022-10-15T10:06:16.266Z,6.68
2022-10-15T10:08:56.237Z,6.70
2022-10-15T10:11:24.179Z,6.13
2022-10-15T10:13:56.274Z,7.15
2022-10-15T10:16:23.562Z,6.28
2022-10-15T10:19:14.193Z,6.60
2022-10-15T10:21:42.920Z,6.75
2022-10-15T10:24:30.319Z,7.32
2022-10-15T10:26:58.141Z,6.97
2022-10-15T10:29:34.578Z,7.10
2022-10-15T10:32:17.160Z,6.78
2022-10-15T10:34:48.775Z,6.95
2022-10-15T10:37:19.052Z,6.28
2022-10-15T10:39:46.091Z,5.90
2022-10-15T10:42:20.017Z,7.03
2022-10-15T10:44:47.032Z,6.70
2022-10-15T10:47:16.496Z,7.15
2022-10-15T10:49:55.262Z,6.28
2022-10-15T10:52:24.680Z,6.32
2022-10-15T10:55:13.428Z,6.03
2022-10-15T10:57:51.131Z,5.40
2022-10-15T11:00:22.183Z,5.97
2022-10-15T11:02:49.935Z,6.20
2022-10-15T11:05:21.590Z,6.10
2022-10-15T11:08:18.531Z,5.50
2022-10-15T11:11:07.566Z,5.15
2022-10-15T11:13:54.432Z,5.70
2022-10-15T11:16:45.848Z,5.55
2022-10-15T11:19:50.408Z,5.75
2022-10-15T11:25:27.355Z,4.90
2022-10-15T11:28:08.364Z,4.45
2022-10-15T11:30:42.569Z,4.38
2022-10-15T11:33:25.598Z,5.35
2022-10-15T11:36:20.123Z,4.43
2022-10-15T11:39:04.508Z,4.63
2022-10-15T11:41:43.142Z,5.47
2022-10-15T11:44:33.418Z,4.78
2022-10-15T11:47:26.123Z,4.97
2022-10-15T11:50:21.343Z,4.55
2022-10-15T11:53:19.086Z,5.40
2022-10-15T11:55:49.370Z,4.32
2022-10-15T11:58:25.943Z,4.57
2022-10-15T12:00:56.471Z,3.95
2022-10-15T12:03:28.045Z,5.18
2022-10-15T12:06:07.665Z,4.57
2022-10-15T12:08:36.256Z,4.35
2022-10-15T12:11:29.615Z,4.78
2022-10-15T12:13:59.032Z,3.72
2022-10-15T12:16:37.774Z,4.55
2022-10-15T12:19:23.958Z,4.60
2022-10-15T12:21:56.517Z,3.92
2022-10-15T12:24:41.169Z,4.50
2022-10-15T12:27:20.401Z,5.05
2022-10-15T12:29:48.786Z,4.40
2022-10-15T12:32:30.342Z,4.68
2022-10-15T12:35:01.431Z,4.18
2022-10-15T12:37:30.060Z,4.90
2022-10-15T12:40:05.168Z,3.90
2022-10-15T12:42:40.272Z,3.70
2022-10-15T12:45:17.676Z,3.10
2022-10-15T12:47:57.341Z,3.85
2022-10-15T12:50:28.177Z,3.25
2022-10-15T12:52:58.914Z,3.13
2022-10-15T12:55:33.970Z,2.78
2022-10-15T12:58:34.472Z,2.65
2022-10-15T13:01:30.688Z,2.60
2022-10-15T13:03:58.845Z,3.33
2022-10-15T13:06:37.906Z,2.47
2022-10-15T13:09:10.595Z,2.90
2022-10-15T13:14:40.524Z,2.88
2022-10-15T13:17:15.321Z,2.28
2022-10-15T13:19:48.373Z,2.58
2022-10-15T13:22:24.164Z,2.38
2022-10-15T13:24:51.112Z,2.00
2022-10-15T13:27:30.874Z,2.67
2022-10-15T13:30:09.520Z,1.70
2022-10-15T13:32:54.336Z,2.55
2022-10-15T13:35:30.320Z,2.33
2022-10-15T13:37:58.252Z,2.15
2022-10-15T13:40:27.248Z,2.10
2022-10-15T13:43:07.017Z,1.80
2022-10-15T13:45:33.971Z,1.95
2022-10-15T13:48:00.505Z,2.42
2022-10-15T13:50:36.050Z,2.40
2022-10-15T13:53:14.537Z,2.10
2022-10-15T13:55:46.528Z,2.42
2022-10-15T13:58:24.844Z,2.85
2022-10-15T14:00:59.215Z,3.15
2022-10-15T14:03:33.780Z,2.40
2022-10-15T14:06:34.502Z,2.40
2022-10-15T14:09:11.887Z,2.25
2022-10-15T14:11:40.493Z,2.13
2022-10-15T14:14:28.235Z,2.05
2022-10-15T14:16:56.096Z,1.83
2022-10-15T14:19:27.107Z,2.08
2022-10-15T14:21:53.677Z,2.38
2022-10-15T14:24:22.882Z,1.70
2022-10-15T14:26:49.687Z,2.03
2022-10-15T14:29:16.124Z,1.50
2022-10-15T14:31:49.662Z,1.70
2022-10-15T14:34:34.101Z,1.80
2022-10-15T14:37:02.460Z,1.73
2022-10-15T14:39:36.186Z,1.85
2022-10-15T14:42:05.554Z,1.98
2022-10-15T14:44:46.905Z,2.60
2022-10-15T14:47:19.214Z,1.60
2022-10-15T14:49:45.852Z,2.47
2022-10-15T14:52:16.583Z,1.70
2022-10-15T14:54:48.160Z,2.15
2022-10-15T14:57:25.006Z,1.50
2022-10-15T14:59:56.377Z,1.30
2022-10-15T15:02:24.499Z,1.55
2022-10-15T15:05:13.028Z,1.60
2022-10-15T15:07:40.346Z,1.70
2022-10-15T15:10:08.659Z,1.42
2022-10-15T15:12:36.350Z,1.80
2022-10-15T15:15:03.049Z,2.20
2022-10-15T15:17:30.392Z,1.52
2022-10-15T15:19:57.907Z,2.47
2022-10-15T15:22:30.425Z,1.40
2022-10-15T15:25:18.550Z,1.65
2022-10-15T15:27:45.096Z,1.75
2022-10-15T15:30:19.098Z,1.90
2022-10-15T15:32:46.215Z,1.45
2022-10-15T15:35:25.600Z,1.95
2022-10-15T15:37:52.554Z,1.50
2022-10-15T15:40:19.515Z,1.60
2022-10-15T15:42:46.618Z,1.33
2022-10-15T15:45:27.445Z,1.75
2022-10-15T15:47:56.651Z,1.42
2022-10-15T15:50:23.135Z,0.93
2022-10-15T15:52:49.700Z,1.10
2022-10-15T15:55:17.230Z,1.80
2022-10-15T15:57:45.376Z,1.98
2022-10-15T16:00:12.411Z,1.42
2022-10-15T16:02:39.594Z,1.73
2022-10-15T16:05:07.457Z,1.10
2022-10-15T16:07:34.721Z,1.40
2022-10-15T16:10:01.727Z,1.63
2022-10-15T16:12:30.458Z,1.67
2022-10-15T16:17:45.536Z,1.60
2022-10-15T16:20:12.991Z,1.73
2022-10-15T16:22:39.628Z,1.50
2022-10-15T16:25:06.697Z,1.38
2022-10-15T16:27:34.607Z,1.83
2022-10-15T16:30:02.594Z,1.60
2022-10-15T16:32:29.173Z,1.60
2022-10-15T16:34:55.798Z,1.90
2022-10-15T16:37:22.513Z,1.98
2022-10-15T16:39:49.793Z,1.67
2022-10-15T16:45:02.787Z,1.42
2022-10-15T16:47:29.359Z,1.80
2022-10-15T16:49:56.010Z,1.65
2022-10-15T16:52:22.812Z,1.40
2022-10-15T16:54:49.441Z,1.92
2022-10-15T16:57:15.924Z,1.88
2022-10-15T16:59:42.721Z,2.03
2022-10-15T17:02:10.038Z,1.70
2022-10-15T17:04:36.658Z,1.65
2022-10-15T17:07:03.178Z,1.83
2022-10-15T17:09:29.721Z,2.70
2022-10-15T17:11:56.173Z,1.92
2022-10-15T17:14:22.665Z,2.20
2022-10-15T17:16:51.327Z,2.25
2022-10-15T17:19:20.581Z,2.40
2022-10-15T17:21:47.642Z,1.95
2022-10-15T17:24:16.104Z,2.50
2022-10-15T17:26:43.818Z,2.28
2022-10-15T17:29:12.712Z,2.70
2022-10-15T17:31:39.656Z,2.55
2022-10-15T17:34:09.506Z,2.50
2022-10-15T17:36:45.491Z,2.60
2022-10-15T17:39:18.761Z,2.10
2022-10-15T17:41:45.809Z,2.35
2022-10-15T17:44:12.480Z,2.20
2022-10-15T17:46:40.006Z,2.50
2022-10-15T17:49:07.689Z,2.45
2022-10-15T17:51:34.918Z,2.45
2022-10-15T17:54:01.623Z,2.08
2022-10-15T17:56:33.731Z,1.95
2022-10-15T17:59:02.068Z,2.25
2022-10-15T18:01:56.633Z,2.70
2022-10-15T18:04:17.605Z,2.00
2022-10-15T18:06:45.049Z,2.25
2022-10-15T18:09:11.809Z,2.00
2022-10-15T18:11:38.790Z,2.25
2022-10-15T18:14:05.399Z,1.92
2022-10-15T18:16:32.364Z,2.22
2022-10-15T18:18:59.057Z,2.30
2022-10-15T18:21:26.439Z,2.00
2022-10-15T18:23:53.070Z,2.72
2022-10-15T18:26:21.767Z,2.10
2022-10-15T18:28:50.785Z,2.45
2022-10-15T18:31:17.783Z,2.65
2022-10-15T18:33:47.822Z,2.55
2022-10-15T18:36:34.572Z,2.75
2022-10-15T18:39:01.401Z,2.72
2022-10-15T18:41:29.900Z,2.63
2022-10-15T18:44:01.694Z,2.33
2022-10-15T18:46:29.635Z,2.40
2022-10-15T18:48:56.556Z,2.60
2022-10-15T18:51:25.241Z,2.65
2022-10-15T18:53:51.940Z,1.88
2022-10-15T18:56:19.961Z,2.28
2022-10-15T18:58:47.584Z,3.00
2022-10-15T19:01:22.289Z,2.15
2022-10-15T19:03:52.755Z,2.72
2022-10-15T19:06:20.892Z,2.40
2022-10-15T19:08:48.289Z,2.28
2022-10-15T19:11:15.798Z,2.30
2022-10-15T19:13:42.379Z,2.65
2022-10-15T19:16:09.088Z,3.05
2022-10-15T19:18:36.944Z,2.38
2022-10-15T19:21:06.681Z,2.42
2022-10-15T19:23:33.807Z,2.00
2022-10-15T19:26:00.648Z,2.28
2022-10-15T19:28:27.623Z,2.00
2022-10-15T19:30:58.116Z,2.58
2022-10-15T19:33:26.874Z,2.42
2022-10-15T19:35:56.519Z,2.25
2022-10-15T19:38:24.086Z,2.53
2022-10-15T19:40:54.509Z,2.58
2022-10-15T19:43:22.273Z,2.00
2022-10-15T19:45:49.313Z,2.13
2022-10-15T19:48:19.028Z,2.03
2022-10-15T19:50:46.997Z,1.90
2022-10-15T19:53:16.593Z,1.98
2022-10-15T19:55:44.577Z,2.10
2022-10-15T19:58:11.328Z,3.03
2022-10-15T20:00:37.849Z,2.50
2022-10-15T20:03:04.523Z,2.45
2022-10-15T20:05:31.067Z,2.10
2022-10-15T20:07:57.582Z,2.08
2022-10-15T20:10:26.120Z,2.20
2022-10-15T20:12:53.133Z,2.78
2022-10-15T20:15:19.743Z,2.30
2022-10-15T20:17:47.069Z,2.25
2022-10-15T20:20:13.623Z,2.17
2022-10-15T20:22:40.110Z,2.70
2022-10-15T20:25:06.840Z,2.83
2022-10-15T20:27:33.336Z,2.55
2022-10-15T20:29:59.819Z,2.53
2022-10-15T20:32:35.066Z,2.53
2022-10-15T20:35:02.664Z,2.60
2022-10-15T20:37:30.125Z,2.40
2022-10-15T20:42:43.220Z,2.38
2022-10-15T20:45:14.402Z,1.90
2022-10-15T20:47:43.805Z,2.30
2022-10-15T20:50:14.292Z,2.08
2022-10-15T20:52:42.292Z,2.60
2022-10-15T20:55:10.062Z,2.90
2022-10-15T20:57:37.321Z,2.72
2022-10-15T21:00:05.797Z,2.60
2022-10-15T21:02:32.980Z,2.40
2022-10-15T21:04:59.504Z,1.90
2022-10-15T21:07:26.018Z,2.20
2022-10-15T21:09:52.958Z,1.90
2022-10-15T21:12:19.557Z,2.08
2022-10-15T21:14:46.402Z,1.75
2022-10-15T21:17:13.347Z,1.80
2022-10-15T21:19:39.832Z,1.90
2022-10-15T21:22:06.417Z,2.08
2022-10-15T21:24:34.638Z,1.77
2022-10-15T21:27:01.684Z,1.70
2022-10-15T21:29:28.315Z,1.70
2022-10-15T21:31:54.950Z,1.83
2022-10-15T21:34:23.242Z,1.83
2022-10-15T21:36:49.694Z,1.70
2022-10-15T21:39:16.506Z,1.80
2022-10-15T21:41:43.036Z,1.85
2022-10-15T21:44:09.650Z,1.73
2022-10-15T21:46:36.327Z,1.60
2022-10-15T21:49:04.081Z,1.10
2022-10-15T21:51:32.556Z,1.23
2022-10-15T21:54:00.488Z,1.77
2022-10-15T21:56:27.162Z,1.77
2022-10-15T21:58:54.699Z,1.73
2022-10-15T22:01:27.075Z,1.70
2022-10-15T22:03:58.981Z,1.65
2022-10-15T22:06:25.565Z,1.50
2022-10-15T22:08:52.987Z,1.70
2022-10-15T22:11:23.020Z,1.70
2022-10-15T22:13:52.704Z,2.13
2022-10-15T22:16:19.627Z,1.58
2022-10-15T22:18:46.675Z,1.40
2022-10-15T22:21:17.300Z,1.55
2022-10-15T22:23:55.515Z,2.33
2022-10-15T22:26:24.918Z,1.90
2022-10-15T22:28:56.312Z,1.60
2022-10-15T22:31:23.585Z,1.70
2022-10-15T22:33:50.289Z,1.58
2022-10-15T22:36:23.820Z,1.30
2022-10-15T22:41:42.224Z,1.67
2022-10-15T22:44:10.226Z,1.60
2022-10-15T22:46:38.055Z,1.40
2022-10-15T22:49:06.959Z,2.10
2022-10-15T22:51:34.049Z,2.10
2022-10-15T22:54:00.943Z,1.67
2022-10-15T22:56:28.432Z,1.48
2022-10-15T22:58:57.143Z,1.83
2022-10-15T23:01:26.155Z,1.55
2022-10-15T23:03:57.836Z,1.40
2022-10-15T23:06:26.290Z,1.55
2022-10-15T23:08:52.980Z,1.70
2022-10-15T23:11:24.107Z,1.50
2022-10-15T23:14:07.802Z,1.63
2022-10-15T23:16:38.115Z,1.20
2022-10-15T23:19:16.880Z,1.55
2022-10-15T23:21:52.840Z,1.30
2022-10-15T23:24:21.933Z,1.38
2022-10-15T23:26:48.989Z,1.30
2022-10-15T23:29:21.058Z,0.93
2022-10-15T23:31:48.505Z,0.90
2022-10-15T23:34:18.108Z,1.02
2022-10-15T23:36:45.080Z,1.10
2022-10-15T23:39:14.528Z,1.20
2022-10-15T23:41:41.094Z,0.98
2022-10-15T23:44:08.141Z,1.58
2022-10-15T23:46:34.606Z,1.20
2022-10-15T23:49:01.135Z,1.33
2022-10-15T23:51:29.623Z,1.15
2022-10-15T23:53:57.981Z,1.33
2022-10-15T23:56:25.125Z,1.35
2022-10-15T23:58:59.551Z,1.23
